DAL2525 CYQQ-CYVR
Flight info
| Callsign | DAL2525 |
|---|---|
| Flight time | 0h 37m |
| Altitude | 9000 |
| Route | VIGSO SOUND6 |
| Aircraft | DC6/M-SDE1FGHIRWXY/S |
Departure
| Time | 2026-04-17 07:41 |
|---|---|
| Airport | Comox Valley International Airport / CFB Comox (CYQQ) |
Arrival
| Time | 2026-04-17 08:19 |
|---|---|
| Airport | Vancouver International Airport (CYVR) |
| Time | Latitude | Longitude | Altitude | Speed | Heading |
|---|---|---|---|---|---|
| 2026-04-17 07:32 | 49.70181 | -124.87248 | 93 ft | 0 kts | 315° |
| 2026-04-17 07:40 | 49.70185 | -124.87255 | 93 ft | 10 kts | 315° |
| 2026-04-17 07:40 | 49.70382 | -124.87558 | 98 ft | 68 kts | 315° |
| 2026-04-17 07:40 | 49.70843 | -124.88281 | 93 ft | 117 kts | 314° |
| 2026-04-17 07:41 | 49.71457 | -124.89274 | 232 ft | 133 kts | 316° |
| 2026-04-17 07:41 | 49.72198 | -124.90253 | 437 ft | 148 kts | 320° |
| 2026-04-17 07:41 | 49.73059 | -124.91374 | 532 ft | 175 kts | 320° |
| 2026-04-17 07:41 | 49.74023 | -124.92644 | 743 ft | 189 kts | 319° |
| 2026-04-17 07:42 | 49.74695 | -124.93554 | 873 ft | 197 kts | 316° |
| 2026-04-17 07:42 | 49.75499 | -124.96112 | 1027 ft | 207 kts | 275° |
| 2026-04-17 07:42 | 49.75417 | -124.97584 | 1135 ft | 210 kts | 256° |
| 2026-04-17 07:42 | 49.74711 | -124.99531 | 1349 ft | 209 kts | 227° |
| 2026-04-17 07:43 | 49.73499 | -125.00711 | 1581 ft | 208 kts | 199° |
| 2026-04-17 07:43 | 49.72072 | -125.00862 | 1809 ft | 207 kts | 170° |
| 2026-04-17 07:43 | 49.70772 | -124.99951 | 2042 ft | 207 kts | 142° |
| 2026-04-17 07:43 | 49.69905 | -124.98202 | 2272 ft | 207 kts | 114° |
| 2026-04-17 07:44 | 49.69430 | -124.96125 | 2534 ft | 205 kts | 108° |
| 2026-04-17 07:44 | 49.68951 | -124.94054 | 2786 ft | 205 kts | 110° |
| 2026-04-17 07:44 | 49.68450 | -124.91985 | 3039 ft | 205 kts | 110° |
| 2026-04-17 07:44 | 49.67951 | -124.89914 | 3287 ft | 206 kts | 110° |
| 2026-04-17 07:45 | 49.67452 | -124.87837 | 3538 ft | 207 kts | 110° |
| 2026-04-17 07:45 | 49.66949 | -124.85760 | 3791 ft | 207 kts | 110° |
| 2026-04-17 07:45 | 49.66447 | -124.83676 | 4035 ft | 207 kts | 110° |
| 2026-04-17 07:45 | 49.65948 | -124.81621 | 4284 ft | 207 kts | 110° |
| 2026-04-17 07:46 | 49.65443 | -124.79532 | 4529 ft | 207 kts | 110° |
| 2026-04-17 07:46 | 49.64936 | -124.77446 | 4780 ft | 208 kts | 110° |
| 2026-04-17 07:46 | 49.64431 | -124.75356 | 5026 ft | 208 kts | 110° |
| 2026-04-17 07:46 | 49.63921 | -124.73264 | 5275 ft | 208 kts | 110° |
| 2026-04-17 07:47 | 49.63413 | -124.71169 | 5523 ft | 209 kts | 110° |
| 2026-04-17 07:47 | 49.62902 | -124.69072 | 5771 ft | 209 kts | 110° |
| 2026-04-17 07:47 | 49.62391 | -124.66971 | 6018 ft | 209 kts | 110° |
| 2026-04-17 07:47 | 49.61877 | -124.64867 | 6269 ft | 210 kts | 110° |
| 2026-04-17 07:48 | 49.61368 | -124.62778 | 6515 ft | 210 kts | 110° |
| 2026-04-17 07:48 | 49.60851 | -124.60663 | 6764 ft | 210 kts | 110° |
| 2026-04-17 07:48 | 49.60334 | -124.58546 | 6994 ft | 212 kts | 110° |
| 2026-04-17 07:48 | 49.59799 | -124.56361 | 7016 ft | 223 kts | 110° |
| 2026-04-17 07:49 | 49.59238 | -124.54072 | 7015 ft | 232 kts | 110° |
| 2026-04-17 07:49 | 49.58659 | -124.51709 | 7011 ft | 239 kts | 110° |
| 2026-04-17 07:49 | 49.58069 | -124.49310 | 6997 ft | 239 kts | 110° |
| 2026-04-17 07:49 | 49.57482 | -124.46915 | 7007 ft | 237 kts | 111° |
| 2026-04-17 07:50 | 49.56900 | -124.44555 | 6997 ft | 235 kts | 110° |
| 2026-04-17 07:50 | 49.56320 | -124.42197 | 6989 ft | 235 kts | 111° |
| 2026-04-17 07:50 | 49.55740 | -124.39847 | 6990 ft | 235 kts | 111° |
| 2026-04-17 07:50 | 49.55161 | -124.37496 | 6992 ft | 235 kts | 111° |
| 2026-04-17 07:51 | 49.54579 | -124.35148 | 6990 ft | 235 kts | 111° |
| 2026-04-17 07:51 | 49.54000 | -124.32800 | 6991 ft | 235 kts | 111° |
| 2026-04-17 07:51 | 49.53418 | -124.30455 | 6991 ft | 235 kts | 111° |
| 2026-04-17 07:51 | 49.52836 | -124.28103 | 6993 ft | 235 kts | 111° |
| 2026-04-17 07:52 | 49.52261 | -124.25788 | 6992 ft | 235 kts | 111° |
| 2026-04-17 07:52 | 49.51673 | -124.23416 | 6989 ft | 235 kts | 111° |
| 2026-04-17 07:52 | 49.51089 | -124.21073 | 6993 ft | 234 kts | 111° |
| 2026-04-17 07:52 | 49.50505 | -124.18724 | 6991 ft | 234 kts | 111° |
| 2026-04-17 07:53 | 49.49928 | -124.16412 | 6995 ft | 234 kts | 111° |
| 2026-04-17 07:53 | 49.49347 | -124.14075 | 6991 ft | 234 kts | 111° |
| 2026-04-17 07:53 | 49.48760 | -124.11729 | 6994 ft | 235 kts | 111° |
| 2026-04-17 07:53 | 49.48175 | -124.09389 | 6992 ft | 234 kts | 111° |
| 2026-04-17 07:54 | 49.47590 | -124.07048 | 6992 ft | 234 kts | 111° |
| 2026-04-17 07:54 | 49.47003 | -124.04709 | 6992 ft | 234 kts | 111° |
| 2026-04-17 07:54 | 49.46417 | -124.02371 | 6991 ft | 234 kts | 111° |
| 2026-04-17 07:54 | 49.45831 | -124.00033 | 6989 ft | 234 kts | 111° |
| 2026-04-17 07:55 | 49.45243 | -123.97696 | 6993 ft | 234 kts | 111° |
| 2026-04-17 07:55 | 49.44655 | -123.95355 | 6992 ft | 234 kts | 111° |
| 2026-04-17 07:55 | 49.44067 | -123.93023 | 6993 ft | 234 kts | 111° |
| 2026-04-17 07:55 | 49.43478 | -123.90682 | 6993 ft | 234 kts | 111° |
| 2026-04-17 07:56 | 49.42889 | -123.88354 | 6991 ft | 234 kts | 111° |
| 2026-04-17 07:56 | 49.42300 | -123.86015 | 6991 ft | 234 kts | 111° |
| 2026-04-17 07:56 | 49.41709 | -123.83682 | 6990 ft | 234 kts | 111° |
| 2026-04-17 07:56 | 49.41127 | -123.81377 | 6993 ft | 234 kts | 111° |
| 2026-04-17 07:57 | 49.40536 | -123.79049 | 6991 ft | 232 kts | 111° |
| 2026-04-17 07:57 | 49.39960 | -123.76776 | 6987 ft | 224 kts | 111° |
| 2026-04-17 07:57 | 49.39405 | -123.74590 | 6988 ft | 217 kts | 111° |
| 2026-04-17 07:57 | 49.38856 | -123.72429 | 6877 ft | 217 kts | 111° |
| 2026-04-17 07:58 | 49.38305 | -123.70264 | 6729 ft | 218 kts | 111° |
| 2026-04-17 07:58 | 49.37753 | -123.68094 | 6620 ft | 218 kts | 111° |
| 2026-04-17 07:58 | 49.37202 | -123.65931 | 6497 ft | 218 kts | 111° |
| 2026-04-17 07:58 | 49.36650 | -123.63769 | 6371 ft | 218 kts | 111° |
| 2026-04-17 07:59 | 49.36099 | -123.61607 | 6249 ft | 218 kts | 111° |
| 2026-04-17 07:59 | 49.35546 | -123.59451 | 6126 ft | 217 kts | 111° |
| 2026-04-17 07:59 | 49.34994 | -123.57288 | 6000 ft | 217 kts | 111° |
| 2026-04-17 07:59 | 49.34603 | -123.55069 | 5865 ft | 216 kts | 99° |
| 2026-04-17 08:00 | 49.34407 | -123.52796 | 5740 ft | 215 kts | 97° |
| 2026-04-17 08:00 | 49.34186 | -123.50526 | 5617 ft | 215 kts | 99° |
| 2026-04-17 08:00 | 49.33944 | -123.48256 | 5493 ft | 215 kts | 99° |
| 2026-04-17 08:00 | 49.33706 | -123.45989 | 5367 ft | 215 kts | 99° |
| 2026-04-17 08:01 | 49.33469 | -123.43719 | 5246 ft | 215 kts | 99° |
| 2026-04-17 08:01 | 49.33234 | -123.41458 | 5122 ft | 215 kts | 99° |
| 2026-04-17 08:01 | 49.32996 | -123.39194 | 4998 ft | 215 kts | 99° |
| 2026-04-17 08:01 | 49.32760 | -123.36934 | 4874 ft | 215 kts | 99° |
| 2026-04-17 08:02 | 49.32521 | -123.34670 | 4749 ft | 215 kts | 99° |
| 2026-04-17 08:02 | 49.32284 | -123.32413 | 4625 ft | 214 kts | 99° |
| 2026-04-17 08:02 | 49.32046 | -123.30159 | 4502 ft | 214 kts | 99° |
| 2026-04-17 08:02 | 49.31808 | -123.27907 | 4376 ft | 214 kts | 99° |
| 2026-04-17 08:03 | 49.31572 | -123.25686 | 4250 ft | 214 kts | 99° |
| 2026-04-17 08:03 | 49.31334 | -123.23438 | 4131 ft | 213 kts | 99° |
| 2026-04-17 08:03 | 49.31095 | -123.21188 | 3996 ft | 213 kts | 99° |
| 2026-04-17 08:03 | 49.30856 | -123.18948 | 3881 ft | 213 kts | 99° |
| 2026-04-17 08:04 | 49.30618 | -123.16711 | 3754 ft | 213 kts | 99° |
| 2026-04-17 08:04 | 49.30378 | -123.14480 | 3624 ft | 212 kts | 99° |
| 2026-04-17 08:04 | 49.30140 | -123.12243 | 3506 ft | 212 kts | 99° |
| 2026-04-17 08:04 | 49.29900 | -123.10013 | 3380 ft | 212 kts | 99° |
| 2026-04-17 08:05 | 49.29660 | -123.07788 | 3254 ft | 212 kts | 99° |
| 2026-04-17 08:05 | 49.29421 | -123.05565 | 3130 ft | 211 kts | 99° |
| 2026-04-17 08:05 | 49.29182 | -123.03347 | 3006 ft | 211 kts | 99° |
| 2026-04-17 08:05 | 49.28941 | -123.01121 | 2882 ft | 211 kts | 99° |
| 2026-04-17 08:06 | 49.28691 | -122.98938 | 2757 ft | 210 kts | 103° |
| 2026-04-17 08:06 | 49.28294 | -122.96785 | 2629 ft | 210 kts | 105° |
| 2026-04-17 08:06 | 49.27915 | -122.94620 | 2504 ft | 210 kts | 104° |
| 2026-04-17 08:06 | 49.27548 | -122.92485 | 2499 ft | 205 kts | 105° |
| 2026-04-17 08:07 | 49.27179 | -122.90404 | 2488 ft | 200 kts | 105° |
| 2026-04-17 08:07 | 49.26818 | -122.88365 | 2492 ft | 197 kts | 105° |
| 2026-04-17 08:07 | 49.26461 | -122.86351 | 2492 ft | 194 kts | 105° |
| 2026-04-17 08:07 | 49.26108 | -122.84365 | 2492 ft | 192 kts | 105° |
| 2026-04-17 08:08 | 49.25759 | -122.82398 | 2488 ft | 191 kts | 105° |
| 2026-04-17 08:08 | 49.25428 | -122.80444 | 2491 ft | 189 kts | 104° |
| 2026-04-17 08:08 | 49.25101 | -122.78523 | 2492 ft | 188 kts | 104° |
| 2026-04-17 08:08 | 49.24769 | -122.76569 | 2492 ft | 187 kts | 104° |
| 2026-04-17 08:09 | 49.24405 | -122.74674 | 2473 ft | 185 kts | 115° |
| 2026-04-17 08:09 | 49.23483 | -122.73436 | 2470 ft | 181 kts | 162° |
| 2026-04-17 08:09 | 49.22253 | -122.73216 | 2508 ft | 177 kts | 176° |
| 2026-04-17 08:09 | 49.21024 | -122.73058 | 2506 ft | 178 kts | 175° |
| 2026-04-17 08:10 | 49.19784 | -122.72903 | 2506 ft | 179 kts | 175° |
| 2026-04-17 08:10 | 49.18541 | -122.72752 | 2508 ft | 180 kts | 175° |
| 2026-04-17 08:10 | 49.17290 | -122.72601 | 2503 ft | 181 kts | 175° |
| 2026-04-17 08:10 | 49.16045 | -122.72683 | 2477 ft | 180 kts | 196° |
| 2026-04-17 08:11 | 49.15013 | -122.73708 | 2488 ft | 179 kts | 229° |
| 2026-04-17 08:11 | 49.14511 | -122.75417 | 2497 ft | 177 kts | 260° |
| 2026-04-17 08:11 | 49.14294 | -122.77262 | 2508 ft | 177 kts | 257° |
| 2026-04-17 08:11 | 49.14077 | -122.79112 | 2499 ft | 177 kts | 266° |
| 2026-04-17 08:12 | 49.14326 | -122.80919 | 2489 ft | 174 kts | 298° |
| 2026-04-17 08:12 | 49.14690 | -122.82655 | 2499 ft | 170 kts | 283° |
| 2026-04-17 08:12 | 49.15043 | -122.84357 | 2471 ft | 171 kts | 277° |
| 2026-04-17 08:12 | 49.15108 | -122.86126 | 2558 ft | 162 kts | 276° |
| 2026-04-17 08:13 | 49.15266 | -122.87822 | 2511 ft | 161 kts | 278° |
| 2026-04-17 08:13 | 49.15432 | -122.89469 | 2490 ft | 152 kts | 279° |
| 2026-04-17 08:13 | 49.15610 | -122.91020 | 2483 ft | 144 kts | 281° |
| 2026-04-17 08:14 | 49.15941 | -122.93921 | 2485 ft | 134 kts | 281° |
| 2026-04-17 08:14 | 49.16098 | -122.95298 | 2487 ft | 130 kts | 278° |
| 2026-04-17 08:14 | 49.16250 | -122.96639 | 2487 ft | 127 kts | 281° |
| 2026-04-17 08:14 | 49.16409 | -122.97990 | 2404 ft | 130 kts | 278° |
| 2026-04-17 08:15 | 49.16549 | -122.99304 | 2395 ft | 125 kts | 281° |
| 2026-04-17 08:15 | 49.16721 | -123.00700 | 2050 ft | 139 kts | 279° |
| 2026-04-17 08:15 | 49.16872 | -123.02111 | 1841 ft | 130 kts | 281° |
| 2026-04-17 08:15 | 49.17029 | -123.03425 | 1663 ft | 123 kts | 279° |
| 2026-04-17 08:16 | 49.17169 | -123.04683 | 1502 ft | 118 kts | 280° |
| 2026-04-17 08:16 | 49.17305 | -123.05881 | 1351 ft | 115 kts | 280° |
| 2026-04-17 08:16 | 49.17441 | -123.07070 | 1203 ft | 112 kts | 280° |
| 2026-04-17 08:16 | 49.17573 | -123.08240 | 1055 ft | 110 kts | 280° |
| 2026-04-17 08:17 | 49.17703 | -123.09372 | 909 ft | 107 kts | 279° |
| 2026-04-17 08:17 | 49.17830 | -123.10479 | 770 ft | 105 kts | 280° |
| 2026-04-17 08:17 | 49.17952 | -123.11565 | 634 ft | 103 kts | 279° |
| 2026-04-17 08:17 | 49.18080 | -123.12636 | 486 ft | 101 kts | 280° |
| 2026-04-17 08:18 | 49.18197 | -123.13683 | 364 ft | 98 kts | 279° |
| 2026-04-17 08:18 | 49.18314 | -123.14692 | 236 ft | 95 kts | 279° |
| 2026-04-17 08:18 | 49.18423 | -123.15673 | 111 ft | 93 kts | 279° |
| 2026-04-17 08:18 | 49.18537 | -123.16644 | 28 ft | 93 kts | 279° |
| 2026-04-17 08:19 | 49.18623 | -123.17364 | 25 ft | 18 kts | 283° |
| 2026-04-17 08:19 | 49.18640 | -123.17480 | 25 ft | 11 kts | 282° |
| 2026-04-17 08:19 | 49.18666 | -123.17615 | 30 ft | 16 kts | 298° |
| 2026-04-17 08:19 | 49.18765 | -123.17734 | 23 ft | 20 kts | 355° |
| 2026-04-17 08:20 | 49.18873 | -123.17755 | 23 ft | 11 kts | 291° |
| 2026-04-17 08:20 | 49.18888 | -123.17867 | 23 ft | 11 kts | 279° |
| 2026-04-17 08:20 | 49.18899 | -123.17976 | 23 ft | 10 kts | 279° |
| 2026-04-17 08:20 | 49.18916 | -123.18061 | 23 ft | 8 kts | 317° |
| 2026-04-17 08:21 | 49.18981 | -123.18055 | 23 ft | 13 kts | 44° |
| 2026-04-17 08:21 | 49.18980 | -123.17979 | 23 ft | 6 kts | 108° |
| 2026-04-17 08:21 | 49.18976 | -123.17947 | 23 ft | 0 kts | 101° |